Time;durP1;ratioP1;P1;durP2;ratioP2;P2;SDS_P1;SDS_P2;PMS_P1;PMS_P2;Temp;Humidity;BMP_temperature;BMP_pressure;BME280_temperature;BME280_humidity;BME280_pressure;Samples;Min_cycle;Max_cycle;Signal;HPM_P1;HPM_P2
2023/08/21 00:01:40;;;;;;;;;;;;;;;23.12;40.84;100642.34;5078361;28;1135;-28
2023/08/21 00:04:05;;;;;;;;;;;;;;;22.69;44.43;100644.91;5078947;28;936;-25
2023/08/21 00:06:31;;;;;;;;;;;;;;;24.40;39.85;100652.41;5067336;28;1090;-27
2023/08/21 00:08:56;;;;;;;;;;;;;;;23.65;39.76;100654.88;5066314;28;1969;-26
2023/08/21 00:11:22;;;;;;;;;;;;;;;22.72;44.71;100649.94;5076841;28;1354;-28
2023/08/21 00:13:49;;;;;;;;;;;;;;;24.48;39.69;100650.69;5065753;28;1479;-24
2023/08/21 00:16:16;;;;;;;;;;;;;;;23.60;39.82;100650.00;5059448;28;1654;-27
2023/08/21 00:18:42;;;;;;;;;;;;;;;23.11;43.36;100648.72;5060208;28;904;-29
2023/08/21 00:21:07;;;;;;;;;;;;;;;24.60;39.72;100653.91;5067065;28;1083;-26
2023/08/21 00:23:33;;;;;;;;;;;;;;;23.10;41.31;100655.09;5065891;28;1133;-25
2023/08/21 00:25:58;;;;;;;;;;;;;;;23.16;43.30;100660.78;5078648;28;1142;-27
2023/08/21 00:28:24;;;;;;;;;;;;;;;24.51;41.07;100653.06;5077384;28;1977;-25
2023/08/21 00:30:49;;;;;;;;;;;;;;;22.71;42.22;100645.59;5059448;28;1076;-30
2023/08/21 00:33:15;;;;;;;;;;;;;;;23.80;41.60;100655.09;5059860;28;1997;-29
2023/08/21 00:35:41;;;;;;;;;;;;;;;24.66;41.72;100656.75;5043655;28;1211;-25
2023/08/21 00:38:07;;;;;;;;;;;;;;;22.81;42.20;100642.81;5078143;28;1189;-30
2023/08/21 00:40:33;;;;;;;;;;;;;;;23.74;41.58;100653.06;5078224;28;1094;-24
2023/08/21 00:42:59;;;;;;;;;;;;;;;24.58;41.41;100660.31;5047041;28;1352;-24
2023/08/21 00:45:26;;;;;;;;;;;;;;;22.59;42.58;100654.81;5072218;28;1163;-25
2023/08/21 00:47:51;;;;;;;;;;;;;;;23.15;42.72;100651.06;5078587;28;1914;-27
2023/08/21 00:50:17;;;;;;;;;;;;;;;24.53;41.17;100651.91;5059949;28;1142;-26
2023/08/21 00:52:43;;;;;;;;;;;;;;;22.96;41.48;100647.59;5077970;28;1186;-24
2023/08/21 00:55:08;;;;;;;;;;;;;;;23.19;42.91;100650.59;5045892;28;1282;-25
2023/08/21 00:57:34;;;;;;;;;;;;;;;24.51;41.06;100653.91;5030773;28;1174;-27
2023/08/21 01:00:00;;;;;;;;;;;;;;;22.86;41.32;100656.59;5059294;28;1087;-27
2023/08/21 01:02:25;;;;;;;;;;;;;;;23.25;42.49;100665.22;5057939;28;1072;-29
2023/08/21 01:04:51;;;;;;;;;;;;;;;24.55;40.73;100659.78;5070954;28;1072;-26
2023/08/21 01:07:17;;;;;;;;;;;;;;;23.00;40.92;100660.53;5045698;28;1970;-25
2023/08/21 01:09:47;;;;;;;;;;;;;;;22.93;43.07;100651.44;5070933;28;1076;-25
2023/08/21 01:12:16;;;;;;;;;;;;;;;24.51;39.64;100658.44;5059459;28;1048;-31
2023/08/21 01:14:54;;;;;;;;;;;;;;;22.79;41.14;100649.34;5059719;28;1122;-25
2023/08/21 01:17:19;;;;;;;;;;;;;;;23.15;42.15;100667.16;5077957;28;1104;-26
2023/08/21 01:19:47;;;;;;;;;;;;;;;24.50;40.66;100652.22;5062524;28;917;-27
2023/08/21 01:22:13;;;;;;;;;;;;;;;22.30;42.46;100659.44;5077182;28;1040;-26
2023/08/21 01:24:39;;;;;;;;;;;;;;;23.33;41.66;100657.22;5059729;28;1087;-25
2023/08/21 01:27:04;;;;;;;;;;;;;;;24.54;39.86;100660.81;5077238;28;1969;-27
2023/08/21 01:29:30;;;;;;;;;;;;;;;22.93;40.98;100651.44;5059252;28;1261;-26
2023/08/21 01:32:05;;;;;;;;;;;;;;;23.12;42.35;100650.38;5051442;28;1116;-28
2023/08/21 01:34:33;;;;;;;;;;;;;;;24.50;40.49;100654.91;5058668;28;1028;-27
2023/08/21 01:36:59;;;;;;;;;;;;;;;22.99;41.15;100652.63;5059000;28;1040;-28
2023/08/21 01:39:24;;;;;;;;;;;;;;;23.63;41.36;100659.56;5059440;28;1060;-27
2023/08/21 01:41:50;;;;;;;;;;;;;;;24.61;40.27;100663.66;5059187;28;1190;-31
2023/08/21 01:44:15;;;;;;;;;;;;;;;22.50;41.95;100653.94;5059936;28;970;-26
2023/08/21 01:46:41;;;;;;;;;;;;;;;23.23;42.13;100654.66;5059035;28;1179;-28
2023/08/21 01:49:08;;;;;;;;;;;;;;;24.63;39.00;100654.41;5054395;28;1910;-26
2023/08/21 01:51:33;;;;;;;;;;;;;;;22.74;41.54;100650.63;5056857;28;1081;-24
2023/08/21 01:54:01;;;;;;;;;;;;;;;22.88;42.66;100651.06;5056164;28;1338;-30
2023/08/21 01:56:26;;;;;;;;;;;;;;;24.53;38.93;100656.41;5038745;28;1159;-28
2023/08/21 01:58:52;;;;;;;;;;;;;;;22.86;41.53;100658.41;5056241;28;1518;-27
2023/08/21 02:01:18;;;;;;;;;;;;;;;22.80;42.98;100657.22;5058849;28;1300;-27
2023/08/21 02:03:44;;;;;;;;;;;;;;;24.53;39.00;100664.50;5077018;28;1163;-28
2023/08/21 02:06:10;;;;;;;;;;;;;;;22.91;41.18;100655.25;5057422;28;1130;-26
2023/08/21 02:08:35;;;;;;;;;;;;;;;22.68;43.25;100664.66;5061351;28;1994;-27
2023/08/21 02:11:01;;;;;;;;;;;;;;;24.37;39.21;100659.94;5058455;28;2407;-25
2023/08/21 02:13:26;;;;;;;;;;;;;;;23.04;40.61;100658.38;5076277;28;1163;-26
2023/08/21 02:15:52;;;;;;;;;;;;;;;22.24;44.30;100657.34;5046816;28;1245;-28
2023/08/21 02:18:18;;;;;;;;;;;;;;;24.36;39.60;100655.59;5042410;28;1154;-27
2023/08/21 02:20:43;;;;;;;;;;;;;;;23.66;39.05;100655.69;5055962;28;1127;-25
2023/08/21 02:23:09;;;;;;;;;;;;;;;21.68;47.22;100652.88;5056642;28;1572;-24
2023/08/21 02:25:34;;;;;;;;;;;;;;;23.97;40.08;100655.16;5058015;28;1044;-27
2023/08/21 02:28:01;;;;;;;;;;;;;;;24.04;38.54;100652.66;5044881;28;1914;-26
2023/08/21 02:30:27;;;;;;;;;;;;;;;21.71;46.84;100655.25;5074438;28;1122;-25
2023/08/21 02:32:53;;;;;;;;;;;;;;;23.88;40.19;100656.13;5073879;28;1032;-27
2023/08/21 02:35:19;;;;;;;;;;;;;;;24.83;38.57;100668.38;5075982;28;1143;-24
2023/08/21 02:37:45;;;;;;;;;;;;;;;21.73;46.48;100649.75;5057794;28;1083;-27
2023/08/21 02:40:10;;;;;;;;;;;;;;;21.89;40.30;100333.97;5076207;28;1056;-25
2023/08/21 02:42:36;;;;;;;;;;;;;;;24.42;39.66;100658.44;5073129;28;1103;-25
2023/08/21 02:45:07;;;;;;;;;;;;;;;21.87;45.55;100648.47;5056052;28;1028;-25
2023/08/21 02:47:42;;;;;;;;;;;;;;;23.53;40.94;100650.78;5074011;28;1906;-25
2023/08/21 02:50:08;;;;;;;;;;;;;;;24.56;39.22;100650.69;5075882;28;1099;-27
2023/08/21 02:52:33;;;;;;;;;;;;;;;21.53;46.12;100647.19;5076104;28;1192;-26
2023/08/21 02:54:59;;;;;;;;;;;;;;;23.52;40.80;100647.28;5071219;28;1052;-26
2023/08/21 02:57:24;;;;;;;;;;;;;;;24.41;40.19;100656.75;5060482;28;1035;-28
2023/08/21 02:59:50;;;;;;;;;;;;;;;21.74;43.75;100648.75;5076107;28;1186;-27
2023/08/21 03:02:16;;;;;;;;;;;;;;;23.30;41.87;100659.38;5044411;28;1394;-27
2023/08/21 03:04:41;;;;;;;;;;;;;;;24.97;38.12;100657.97;5042885;28;914;-26
2023/08/21 03:07:07;;;;;;;;;;;;;;;24.75;37.50;100656.75;5049578;28;2356;-25
2023/08/21 03:09:32;;;;;;;;;;;;;;;24.47;38.30;100663.31;5055448;28;2055;-26
2023/08/21 03:11:58;;;;;;;;;;;;;;;24.38;39.17;100661.63;5037209;28;2270;-27
2023/08/21 03:14:24;;;;;;;;;;;;;;;23.88;40.50;100654.28;5037112;28;2110;-28
2023/08/21 03:16:50;;;;;;;;;;;;;;;23.83;41.04;100665.53;5034485;28;2148;-27
2023/08/21 03:19:15;;;;;;;;;;;;;;;24.53;40.55;100668.03;5061143;28;2328;-27
2023/08/21 03:21:41;;;;;;;;;;;;;;;25.14;39.21;100650.66;5041909;28;1924;-27
2023/08/21 03:24:07;;;;;;;;;;;;;;;25.01;39.01;100670.03;5063422;28;1624;-27
2023/08/21 03:26:33;;;;;;;;;;;;;;;25.18;38.17;100661.94;5046356;28;1306;-26
2023/08/21 03:28:58;;;;;;;;;;;;;;;24.66;38.95;100669.34;5066694;28;1914;-26
2023/08/21 03:31:24;;;;;;;;;;;;;;;24.27;40.12;100665.47;5068004;28;1017;-26
2023/08/21 03:33:50;;;;;;;;;;;;;;;24.26;40.06;100678.06;5037213;28;1631;-25
2023/08/21 03:36:18;;;;;;;;;;;;;;;24.08;41.13;100684.41;5056238;28;1212;-26
2023/08/21 03:38:45;;;;;;;;;;;;;;;24.02;41.36;100682.38;5075144;28;1023;-29
2023/08/21 03:41:11;;;;;;;;;;;;;;;24.12;43.69;100681.38;5057121;28;1296;-26
2023/08/21 03:43:36;;;;;;;;;;;;;;;25.31;39.07;100682.94;5050052;28;1098;-28
2023/08/21 03:46:02;;;;;;;;;;;;;;;25.51;38.94;100683.38;5034446;28;1249;-25
2023/08/21 03:48:28;;;;;;;;;;;;;;;25.34;39.38;100682.56;5043550;28;1967;-24
2023/08/21 03:50:53;;;;;;;;;;;;;;;24.85;39.54;100684.34;5054139;28;1420;-26
2023/08/21 03:53:19;;;;;;;;;;;;;;;24.50;40.29;100686.34;5035413;28;1949;-28
2023/08/21 03:55:44;;;;;;;;;;;;;;;24.17;41.40;100689.81;5057610;28;1123;-23
2023/08/21 03:58:10;;;;;;;;;;;;;;;22.38;45.62;100693.53;5051028;28;1259;-23
2023/08/21 04:00:35;;;;;;;;;;;;;;;22.57;48.82;100689.84;5053120;28;955;-28
2023/08/21 04:03:01;;;;;;;;;;;;;;;24.85;41.46;100700.47;5068102;28;1318;-26
2023/08/21 04:05:27;;;;;;;;;;;;;;;22.65;45.28;100693.63;5037261;28;1206;-27
2023/08/21 04:07:52;;;;;;;;;;;;;;;22.09;47.13;100690.03;5055402;28;1910;-27
2023/08/21 04:10:18;;;;;;;;;;;;;;;21.51;48.10;100687.47;5058947;28;1136;-23
2023/08/21 04:12:44;;;;;;;;;;;;;;;22.88;46.61;100688.63;5073521;28;1171;-26
2023/08/21 04:15:09;;;;;;;;;;;;;;;24.96;41.57;100691.25;5076889;28;1123;-29
2023/08/21 04:17:35;;;;;;;;;;;;;;;23.08;45.15;100691.09;5076778;28;1004;-25
2023/08/21 04:20:01;;;;;;;;;;;;;;;22.50;46.35;100694.97;5069183;28;1102;-24
2023/08/21 04:22:26;;;;;;;;;;;;;;;21.69;48.41;100688.53;5039097;28;1838;-26
2023/08/21 04:24:52;;;;;;;;;;;;;;;22.04;47.96;100692.31;5040053;28;1397;-24
2023/08/21 04:27:17;;;;;;;;;;;;;;;22.14;50.84;100687.75;5057729;28;1910;-26
2023/08/21 04:29:43;;;;;;;;;;;;;;;24.68;43.31;100702.31;5057490;28;1164;-23
2023/08/21 04:32:08;;;;;;;;;;;;;;;22.97;44.44;100695.72;5059533;28;988;-26
2023/08/21 04:34:34;;;;;;;;;;;;;;;22.82;45.33;100699.97;5050261;28;1377;-26
2023/08/21 04:37:00;;;;;;;;;;;;;;;23.51;45.24;100709.16;5077882;28;1293;-28
2023/08/21 04:39:25;;;;;;;;;;;;;;;24.36;43.32;100712.06;5059857;28;1333;-26
2023/08/21 04:41:51;;;;;;;;;;;;;;;22.49;47.53;100700.47;5047730;28;1617;-25
2023/08/21 04:44:18;;;;;;;;;;;;;;;22.06;48.27;100705.56;5049919;28;1170;-29
2023/08/21 04:46:43;;;;;;;;;;;;;;;22.89;46.88;100709.06;5052124;28;1218;-24
2023/08/21 04:49:10;;;;;;;;;;;;;;;22.82;50.85;100713.38;5059722;28;1906;-28
2023/08/21 04:51:35;;;;;;;;;;;;;;;25.49;42.26;100716.91;5059512;28;1178;-23
2023/08/21 04:54:02;;;;;;;;;;;;;;;23.18;44.78;100710.63;5045168;28;2572;-25
2023/08/21 04:56:28;;;;;;;;;;;;;;;22.11;47.55;100711.31;5047217;28;1110;-28
2023/08/21 04:58:55;;;;;;;;;;;;;;;21.78;48.58;100706.41;5058250;28;1377;-22
2023/08/21 05:01:24;;;;;;;;;;;;;;;21.55;49.14;100706.78;5047590;28;1048;-24
2023/08/21 05:03:50;;;;;;;;;;;;;;;22.77;48.77;100708.50;5058835;28;1044;-24
2023/08/21 05:06:17;;;;;;;;;;;;;;;25.11;42.67;100712.09;5048038;28;1133;-30
2023/08/21 05:08:43;;;;;;;;;;;;;;;22.46;47.86;100706.16;5056814;28;1985;-26
2023/08/21 05:11:09;;;;;;;;;;;;;;;21.89;49.23;100708.03;5044757;28;1281;-22
2023/08/21 05:13:36;;;;;;;;;;;;;;;22.33;48.12;100712.75;5047456;28;1165;-28
2023/08/21 05:16:03;;;;;;;;;;;;;;;21.42;49.98;100704.38;5040395;28;1321;-27
2023/08/21 05:18:33;;;;;;;;;;;;;;;22.61;50.86;100712.69;5052335;28;1246;-22
2023/08/21 05:20:58;;;;;;;;;;;;;;;25.03;43.13;100713.78;5045700;28;1151;-29
2023/08/21 05:23:24;;;;;;;;;;;;;;;23.80;44.35;100710.66;5043705;28;2695;-29
2023/08/21 05:25:53;;;;;;;;;;;;;;;24.43;43.05;100713.91;5058529;28;1133;-28
2023/08/21 05:28:18;;;;;;;;;;;;;;;24.31;41.92;100712.53;5058941;28;1957;-25
2023/08/21 05:30:46;;;;;;;;;;;;;;;22.80;44.69;100705.50;5059389;28;1112;-24
2023/08/21 05:33:11;;;;;;;;;;;;;;;23.07;44.92;100711.72;5048403;28;1444;-24
2023/08/21 05:35:37;;;;;;;;;;;;;;;22.49;46.83;100711.19;5059277;28;1206;-24
2023/08/21 05:38:03;;;;;;;;;;;;;;;22.46;47.29;100714.19;5066093;28;1273;-26
2023/08/21 05:40:29;;;;;;;;;;;;;;;22.63;47.78;100713.41;5038489;28;1222;-29
2023/08/21 05:42:55;;;;;;;;;;;;;;;21.96;48.40;100709.16;5037993;28;1305;-23
2023/08/21 05:45:20;;;;;;;;;;;;;;;21.75;48.99;100706.69;5045085;28;1445;-25
2023/08/21 05:47:46;;;;;;;;;;;;;;;21.45;50.30;100700.59;5061718;28;1926;-26
2023/08/21 05:50:11;;;;;;;;;;;;;;;21.94;49.51;100715.66;5055322;28;1507;-27
2023/08/21 05:52:37;;;;;;;;;;;;;;;21.65;50.46;100712.91;5031759;28;1980;-25
2023/08/21 05:55:04;;;;;;;;;;;;;;;21.82;51.48;100713.16;5056736;28;1040;-26
2023/08/21 05:57:29;;;;;;;;;;;;;;;24.00;46.76;100721.16;5056633;28;1036;-27
2023/08/21 05:59:56;;;;;;;;;;;;;;;22.76;47.65;100714.84;5038951;28;1298;-24
2023/08/21 06:02:21;;;;;;;;;;;;;;;22.06;49.17;100718.94;5037612;28;1429;-27
2023/08/21 06:04:47;;;;;;;;;;;;;;;22.33;48.72;100715.41;5038494;28;1120;-25
2023/08/21 06:07:12;;;;;;;;;;;;;;;22.01;48.96;100722.09;5043296;28;1906;-26
2023/08/21 06:09:38;;;;;;;;;;;;;;;21.30;50.03;100727.81;5072306;28;866;-24
2023/08/21 06:12:04;;;;;;;;;;;;;;;21.47;49.67;100728.06;5023472;28;1261;-24
2023/08/21 06:14:31;;;;;;;;;;;;;;;22.32;50.22;100728.97;5038431;28;1261;-27
2023/08/21 06:17:01;;;;;;;;;;;;;;;24.37;44.09;100735.22;5041894;28;1846;-26
2023/08/21 06:19:26;;;;;;;;;;;;;;;22.58;46.96;100736.25;5064368;28;1261;-25
2023/08/21 06:21:52;;;;;;;;;;;;;;;21.68;49.37;100737.69;5036249;28;1953;-26
2023/08/21 06:24:17;;;;;;;;;;;;;;;22.45;47.83;100739.31;5027331;28;1191;-25
2023/08/21 06:26:43;;;;;;;;;;;;;;;22.34;48.12;100743.91;5038521;28;1156;-27
2023/08/21 06:29:08;;;;;;;;;;;;;;;21.60;49.89;100741.13;5037862;28;1910;-29
2023/08/21 06:31:34;;;;;;;;;;;;;;;20.80;50.07;100610.19;5037748;28;1313;-25
2023/08/21 06:33:59;;;;;;;;;;;;;;;22.91;49.26;100741.94;5037937;28;1290;-26
2023/08/21 06:36:25;;;;;;;;;;;;;;;24.51;44.17;100745.34;5049759;28;1400;-22
2023/08/21 06:38:50;;;;;;;;;;;;;;;24.03;44.68;100739.63;5055770;28;1284;-24
2023/08/21 06:41:16;;;;;;;;;;;;;;;24.20;43.37;100745.94;5061765;28;1160;-25
2023/08/21 06:43:42;;;;;;;;;;;;;;;24.11;43.13;100742.34;5027219;28;1159;-24
2023/08/21 06:46:07;;;;;;;;;;;;;;;23.55;43.01;100746.31;5054348;28;1084;-23
2023/08/21 06:48:34;;;;;;;;;;;;;;;23.68;43.34;100743.19;5054139;28;1978;-24
2023/08/21 06:50:59;;;;;;;;;;;;;;;23.39;43.73;100746.16;5055870;28;1025;-28
2023/08/21 06:53:25;;;;;;;;;;;;;;;23.74;43.82;100744.38;5054969;28;1832;-27
2023/08/21 06:55:50;;;;;;;;;;;;;;;24.50;42.65;100750.88;5055396;28;1148;-25
2023/08/21 06:58:16;;;;;;;;;;;;;;;23.95;42.42;100756.56;5055112;28;992;-28
2023/08/21 07:00:41;;;;;;;;;;;;;;;22.65;45.20;100750.78;5054930;28;1151;-24
2023/08/21 07:03:07;;;;;;;;;;;;;;;22.84;46.13;100757.81;5064169;28;1093;-27
2023/08/21 07:05:33;;;;;;;;;;;;;;;22.67;46.51;100751.44;5071704;28;1324;-26
2023/08/21 07:07:59;;;;;;;;;;;;;;;22.91;46.51;100750.00;5072306;28;1905;-27
2023/08/21 07:10:24;;;;;;;;;;;;;;;22.37;47.61;100754.31;5062332;28;1082;-24
2023/08/21 07:12:50;;;;;;;;;;;;;;;22.92;47.43;100758.91;5065900;28;1305;-22
2023/08/21 07:15:15;;;;;;;;;;;;;;;22.84;47.26;100759.66;5069062;28;1258;-28
2023/08/21 07:17:41;;;;;;;;;;;;;;;23.79;45.75;100763.53;5057564;28;1021;-26
2023/08/21 07:20:07;;;;;;;;;;;;;;;23.69;45.08;100763.66;5055737;28;1195;-26
2023/08/21 07:22:32;;;;;;;;;;;;;;;23.09;46.64;100759.84;5061455;28;1897;-26
2023/08/21 07:25:00;;;;;;;;;;;;;;;22.72;47.37;100759.88;5054612;28;1167;-25
2023/08/21 07:27:26;;;;;;;;;;;;;;;23.24;46.34;100761.00;5054795;28;1906;-17
2023/08/21 07:29:51;;;;;;;;;;;;;;;22.65;48.16;100752.63;5068306;28;1127;-18
2023/08/21 07:32:17;;;;;;;;;;;;;;;23.99;45.06;100749.03;5073053;28;1138;-17
2023/08/21 07:34:42;;;;;;;;;;;;;;;22.86;46.89;100761.19;5072619;28;1123;-17
2023/08/21 07:37:09;;;;;;;;;;;;;;;22.81;48.04;100746.56;5068821;28;1269;-17
2023/08/21 07:39:34;;;;;;;;;;;;;;;23.10;47.45;100750.81;5068095;28;1381;-17
2023/08/21 07:42:00;;;;;;;;;;;;;;;22.97;47.17;100740.50;5074065;28;1064;-17
2023/08/21 07:44:26;;;;;;;;;;;;;;;23.22;46.67;100748.75;5057876;28;1329;-17
2023/08/21 07:46:52;;;;;;;;;;;;;;;23.26;47.00;100746.56;5066055;28;1090;-17
2023/08/21 07:49:17;;;;;;;;;;;;;;;22.99;47.28;100750.06;5072705;28;1980;-17
2023/08/21 07:51:43;;;;;;;;;;;;;;;23.83;45.52;100746.09;5077506;28;2043;-17
2023/08/21 07:54:08;;;;;;;;;;;;;;;23.81;45.22;100741.88;5071213;28;1151;-17
2023/08/21 07:56:35;;;;;;;;;;;;;;;23.62;46.25;100743.81;5076702;28;1380;-17
2023/08/21 07:59:01;;;;;;;;;;;;;;;23.45;46.22;100753.63;5063122;28;1106;-16
2023/08/21 08:01:27;;;;;;;;;;;;;;;23.67;45.72;100746.03;5076598;28;1265;-28
2023/08/21 08:03:52;;;;;;;;;;;;;;;23.54;45.68;100749.16;5059537;28;1071;-23
2023/08/21 08:06:18;;;;;;;;;;;;;;;23.44;45.60;100743.88;5060618;28;1186;-17
2023/08/21 08:08:44;;;;;;;;;;;;;;;23.00;46.43;100734.81;5060024;28;1983;-17
2023/08/21 08:11:09;;;;;;;;;;;;;;;22.97;46.32;100746.69;5071498;28;1349;-17
2023/08/21 08:13:35;;;;;;;;;;;;;;;23.69;45.03;100739.47;5058256;28;1224;-17
2023/08/21 08:16:00;;;;;;;;;;;;;;;23.99;44.19;100744.47;5074081;28;1503;-17
2023/08/21 08:18:26;;;;;;;;;;;;;;;22.95;46.41;100745.16;5068617;28;1039;-17
2023/08/21 08:20:52;;;;;;;;;;;;;;;22.30;48.25;100734.47;5059672;28;1013;-17
2023/08/21 08:23:18;;;;;;;;;;;;;;;21.94;49.14;100739.75;5057073;28;2052;-17
2023/08/21 08:25:44;;;;;;;;;;;;;;;21.90;49.43;100729.31;5066058;28;1124;-17
2023/08/21 08:28:09;;;;;;;;;;;;;;;21.60;50.25;100723.25;5061621;28;1926;-17
2023/08/21 08:30:35;;;;;;;;;;;;;;;21.58;50.55;100729.72;5063031;28;1345;-17
2023/08/21 08:33:00;;;;;;;;;;;;;;;21.47;50.83;100715.50;5076268;28;1333;-17
2023/08/21 08:35:26;;;;;;;;;;;;;;;23.96;46.13;100726.84;5070714;28;1135;-17
2023/08/21 08:37:51;;;;;;;;;;;;;;;23.51;45.57;100715.38;5063316;28;1300;-26
2023/08/21 08:40:17;;;;;;;;;;;;;;;21.88;48.14;100720.63;5058061;28;929;-27
2023/08/21 08:42:43;;;;;;;;;;;;;;;21.28;48.69;100713.75;5057813;28;1139;-27
2023/08/21 08:45:08;;;;;;;;;;;;;;;21.18;50.10;100724.47;5057832;28;1088;-26
2023/08/21 08:47:37;;;;;;;;;;;;;;;21.28;50.84;100714.59;5070845;28;1902;-24
2023/08/21 08:50:03;;;;;;;;;;;;;;;21.29;51.32;100712.75;5058437;28;1044;-25
2023/08/21 08:52:29;;;;;;;;;;;;;;;21.37;51.55;100707.50;5057055;28;2232;-24
2023/08/21 08:54:54;;;;;;;;;;;;;;;21.38;51.81;100703.88;5040730;28;1253;-27
2023/08/21 08:57:20;;;;;;;;;;;;;;;23.71;46.60;100697.19;5039543;28;1443;-26
2023/08/21 08:59:45;;;;;;;;;;;;;;;23.44;46.29;100704.44;5057875;28;1498;-28
2023/08/21 09:02:11;;;;;;;;;;;;;;;21.73;49.06;100698.81;5057452;28;1368;-29
2023/08/21 09:04:36;;;;;;;;;;;;;;;21.17;49.59;100701.34;5063528;28;1337;-27
2023/08/21 09:07:08;;;;;;;;;;;;;;;21.12;50.77;100698.28;5057050;28;1497;-26
2023/08/21 09:09:37;;;;;;;;;;;;;;;21.10;51.29;100693.09;5057375;28;1906;-22
2023/08/21 09:12:07;;;;;;;;;;;;;;;21.30;50.81;100695.72;5057236;28;1199;-28
2023/08/21 09:14:32;;;;;;;;;;;;;;;21.07;51.71;100695.22;5057627;28;1447;-25
2023/08/21 09:17:03;;;;;;;;;;;;;;;21.04;52.01;100704.34;5057901;28;1353;-25
2023/08/21 09:19:29;;;;;;;;;;;;;;;24.09;45.50;100701.34;5056953;28;1372;-28
2023/08/21 09:21:54;;;;;;;;;;;;;;;22.77;47.11;100694.22;5054426;28;1848;-24
2023/08/21 09:24:20;;;;;;;;;;;;;;;21.55;48.66;100687.19;5047798;28;1153;-24
2023/08/21 09:26:45;;;;;;;;;;;;;;;21.16;50.14;100697.84;5057180;28;1047;-29
2023/08/21 09:29:11;;;;;;;;;;;;;;;21.12;50.44;100683.06;5056618;28;1906;-25
2023/08/21 09:31:36;;;;;;;;;;;;;;;21.23;50.20;100682.06;5046781;28;1168;-25
2023/08/21 09:34:05;;;;;;;;;;;;;;;21.11;50.78;100680.53;5072875;28;1015;-27
2023/08/21 09:36:31;;;;;;;;;;;;;;;21.27;50.38;100688.81;5056721;28;1092;-25
2023/08/21 09:38:57;;;;;;;;;;;;;;;22.35;51.03;100699.19;5056856;28;1041;-26
2023/08/21 09:41:22;;;;;;;;;;;;;;;25.33;41.17;100698.91;5056816;28;1039;-25
2023/08/21 09:43:48;;;;;;;;;;;;;;;22.05;47.21;100687.81;5056796;28;1187;-23
2023/08/21 09:46:14;;;;;;;;;;;;;;;21.51;47.32;100684.81;5056749;28;1160;-26
2023/08/21 09:48:40;;;;;;;;;;;;;;;21.24;49.13;100680.22;5056548;28;1984;-23
2023/08/21 09:51:05;;;;;;;;;;;;;;;21.12;49.86;100684.91;5038955;28;1033;-26
2023/08/21 09:53:31;;;;;;;;;;;;;;;21.20;49.79;100678.84;5064883;28;2381;-25
2023/08/21 09:55:56;;;;;;;;;;;;;;;21.15;50.06;100674.75;5043151;28;1082;-28
2023/08/21 09:58:22;;;;;;;;;;;;;;;21.08;50.57;100665.63;5056383;28;1192;-24
2023/08/21 10:00:50;;;;;;;;;;;;;;;24.03;44.63;100680.50;5056300;28;1099;-24
2023/08/21 10:03:20;;;;;;;;;;;;;;;23.09;45.44;100669.47;5047571;28;1342;-30
2023/08/21 10:05:45;;;;;;;;;;;;;;;22.16;47.34;100673.34;5070669;28;1294;-30
2023/08/21 10:08:11;;;;;;;;;;;;;;;21.92;47.16;100669.44;5037755;28;1934;-27
2023/08/21 10:10:37;;;;;;;;;;;;;;;22.02;47.10;100660.31;5045415;28;1117;-25
2023/08/21 10:13:03;;;;;;;;;;;;;;;21.70;48.75;100661.63;5070313;28;1357;-27
2023/08/21 10:15:28;;;;;;;;;;;;;;;21.51;50.09;100651.84;5056186;28;1091;-25
2023/08/21 10:17:54;;;;;;;;;;;;;;;21.48;51.42;100652.97;5063619;28;1071;-25
2023/08/21 10:20:21;;;;;;;;;;;;;;;21.40;52.55;100645.66;5075876;28;1229;-29
2023/08/21 10:22:48;;;;;;;;;;;;;;;21.39;53.54;100653.84;5065251;28;2102;-27
2023/08/21 10:25:22;;;;;;;;;;;;;;;21.72;56.37;100653.44;5071683;28;1290;-24
2023/08/21 10:27:58;;;;;;;;;;;;;;;24.47;47.79;100660.63;5074020;28;1914;-25
2023/08/21 10:30:24;;;;;;;;;;;;;;;22.40;49.46;100651.34;5055834;28;1278;-28
2023/08/21 10:32:50;;;;;;;;;;;;;;;21.73;51.00;100644.41;5064098;28;1254;-25
2023/08/21 10:35:18;;;;;;;;;;;;;;;21.59;51.82;100640.38;5061757;28;1133;-23
2023/08/21 10:38:03;;;;;;;;;;;;;;;21.70;52.07;100642.03;5055194;28;1092;-26
2023/08/21 10:40:29;;;;;;;;;;;;;;;21.57;52.80;100637.03;5041735;28;2254;-26
2023/08/21 10:42:55;;;;;;;;;;;;;;;21.59;52.73;100635.88;5055734;28;954;-26
2023/08/21 10:45:20;;;;;;;;;;;;;;;23.26;50.15;100633.84;5056866;28;1237;-28
2023/08/21 10:47:48;;;;;;;;;;;;;;;24.75;45.72;100635.25;5061399;28;1987;-24
2023/08/21 10:50:14;;;;;;;;;;;;;;;22.16;49.40;100625.97;5075532;28;1269;-27
2023/08/21 10:52:41;;;;;;;;;;;;;;;22.12;50.38;100635.34;5071506;28;1829;-26
2023/08/21 10:55:07;;;;;;;;;;;;;;;21.88;50.73;100636.75;5075637;28;1337;-28
2023/08/21 10:57:33;;;;;;;;;;;;;;;22.31;50.02;100625.44;5069802;28;1027;-26
2023/08/21 10:59:59;;;;;;;;;;;;;;;22.24;50.24;100631.41;5065458;28;1131;-25
2023/08/21 11:02:26;;;;;;;;;;;;;;;22.20;50.84;100630.06;5057844;28;1119;-26
2023/08/21 11:04:51;;;;;;;;;;;;;;;24.02;47.75;100628.63;5061552;28;1194;-25
2023/08/21 11:07:17;;;;;;;;;;;;;;;24.55;46.02;100635.59;5073610;28;1262;-27
2023/08/21 11:09:43;;;;;;;;;;;;;;;22.35;48.87;100626.81;5064276;28;1914;-26
2023/08/21 11:12:09;;;;;;;;;;;;;;;22.38;50.17;100623.84;5073326;28;1040;-28
2023/08/21 11:14:35;;;;;;;;;;;;;;;22.19;50.63;100627.53;5064946;28;1342;-27
2023/08/21 11:17:01;;;;;;;;;;;;;;;22.33;50.53;100623.44;5074475;28;1313;-24
2023/08/21 11:19:26;;;;;;;;;;;;;;;22.34;50.68;100623.28;5064731;28;1112;-24
2023/08/21 11:21:52;;;;;;;;;;;;;;;22.36;50.90;100623.16;5067425;28;1833;-24
2023/08/21 11:24:17;;;;;;;;;;;;;;;23.92;49.13;100636.81;5068571;28;1267;-28
2023/08/21 11:26:43;;;;;;;;;;;;;;;26.42;42.20;100627.34;5059552;28;1005;-24
2023/08/21 11:29:08;;;;;;;;;;;;;;;23.34;46.21;100626.69;5060290;28;1918;-29
2023/08/21 11:31:34;;;;;;;;;;;;;;;22.98;46.54;100627.69;5041851;28;1016;-24
2023/08/21 11:33:59;;;;;;;;;;;;;;;22.66;46.92;100625.59;5065878;28;1298;-28
2023/08/21 11:36:25;;;;;;;;;;;;;;;22.86;47.57;100631.59;5062965;28;1000;-23
2023/08/21 11:39:00;;;;;;;;;;;;;;;22.78;48.08;100623.50;5064109;28;1330;-25
2023/08/21 11:41:25;;;;;;;;;;;;;;;22.84;48.40;100631.75;5052908;28;1234;-24
2023/08/21 11:43:51;;;;;;;;;;;;;;;22.72;49.00;100631.16;5058741;28;1112;-27
2023/08/21 11:46:17;;;;;;;;;;;;;;;22.81;48.97;100628.53;5059091;28;1000;-28
2023/08/21 11:48:44;;;;;;;;;;;;;;;22.53;49.84;100634.84;5059410;28;1995;-30
2023/08/21 11:51:10;;;;;;;;;;;;;;;22.49;49.56;100626.28;5056693;28;953;-28
2023/08/21 11:53:36;;;;;;;;;;;;;;;22.55;49.63;100640.91;5057856;28;2764;-25
2023/08/21 11:56:02;;;;;;;;;;;;;;;22.60;49.82;100635.09;5070163;28;1421;-28
2023/08/21 11:58:30;;;;;;;;;;;;;;;22.67;49.53;100638.84;5059454;28;1368;-28
2023/08/21 12:01:03;;;;;;;;;;;;;;;22.60;49.64;100635.09;5070489;28;970;-28
2023/08/21 12:03:29;;;;;;;;;;;;;;;22.32;50.37;100640.53;5068338;28;1076;-27
2023/08/21 12:05:55;;;;;;;;;;;;;;;22.49;50.33;100641.50;5059567;28;1087;-27
2023/08/21 12:08:20;;;;;;;;;;;;;;;22.63;50.06;100641.00;5070262;28;2004;-23
2023/08/21 12:10:49;;;;;;;;;;;;;;;22.67;50.11;100646.06;5065818;28;1356;-23
2023/08/21 12:13:15;;;;;;;;;;;;;;;22.63;50.48;100641.00;5070251;28;1366;-24
2023/08/21 12:15:40;;;;;;;;;;;;;;;22.50;50.65;100643.22;5058403;28;992;-27
2023/08/21 12:18:06;;;;;;;;;;;;;;;22.34;50.69;100641.19;5058342;28;1360;-26
2023/08/21 12:20:32;;;;;;;;;;;;;;;22.45;50.30;100641.00;5060592;28;1053;-26
2023/08/21 12:22:58;;;;;;;;;;;;;;;22.47;50.68;100646.19;5061703;28;2472;-25
2023/08/21 12:25:24;;;;;;;;;;;;;;;22.45;51.05;100651.72;5067391;28;1308;-26
2023/08/21 12:27:49;;;;;;;;;;;;;;;22.61;50.42;100642.16;5060986;28;1898;-24
2023/08/21 12:30:15;;;;;;;;;;;;;;;22.36;50.58;100648.13;5066890;28;1353;-27
2023/08/21 12:32:40;;;;;;;;;;;;;;;22.17;50.76;100645.59;5071635;28;1281;-32
2023/08/21 12:35:06;;;;;;;;;;;;;;;22.06;50.82;100643.94;5054433;28;1322;-27
2023/08/21 12:37:31;;;;;;;;;;;;;;;21.92;51.35;100645.31;5073915;28;1414;-27
2023/08/21 12:39:57;;;;;;;;;;;;;;;22.27;50.90;100641.00;5068006;28;1080;-26
2023/08/21 12:42:22;;;;;;;;;;;;;;;22.30;51.03;100648.72;5070676;28;1340;-31